createdAt,value
2019-04-02T00:01:34.334Z,64.05
2019-04-02T00:04:38.766Z,63.70
2019-04-02T00:07:43.681Z,63.99
2019-04-02T00:10:48.120Z,64.36
2019-04-02T00:13:53.545Z,64.17
2019-04-02T00:16:57.985Z,64.84
2019-04-02T00:20:03.402Z,64.51
2019-04-02T00:23:10.511Z,64.91
2019-04-02T00:26:15.237Z,64.59
2019-04-02T00:29:19.669Z,64.77
2019-04-02T00:32:24.118Z,64.99
2019-04-02T00:35:28.559Z,65.28
2019-04-02T00:38:34.289Z,65.20
2019-04-02T00:41:39.812Z,65.82
2019-04-02T00:44:44.253Z,65.51
2019-04-02T00:47:48.695Z,65.25
2019-04-02T00:50:53.124Z,65.57
2019-04-02T00:53:57.564Z,65.52
2019-04-02T00:57:02.009Z,65.21
2019-04-02T01:00:07.841Z,64.87
2019-04-02T01:03:12.471Z,64.63
2019-04-02T01:06:17.297Z,64.43
2019-04-02T01:09:21.733Z,64.67
2019-04-02T01:12:26.508Z,65.07
2019-04-02T01:15:30.937Z,65.32
2019-04-02T01:18:35.380Z,65.84
2019-04-02T01:21:39.827Z,65.50
2019-04-02T01:24:44.261Z,65.32
2019-04-02T01:27:49.032Z,65.33
2019-04-02T01:30:53.767Z,64.98
2019-04-02T01:33:58.207Z,65.70
2019-04-02T01:37:02.653Z,65.40
2019-04-02T01:40:10.172Z,65.28
2019-04-02T01:43:14.618Z,65.77
2019-04-02T01:46:19.043Z,65.82
2019-04-02T01:49:23.782Z,65.70
2019-04-02T01:52:28.223Z,65.94
2019-04-02T01:55:32.656Z,65.55
2019-04-02T01:58:37.377Z,65.87
2019-04-02T02:01:42.096Z,65.73
2019-04-02T02:04:46.552Z,65.73
2019-04-02T02:07:50.991Z,65.88
2019-04-02T02:10:55.433Z,66.19
2019-04-02T02:14:00.200Z,66.33
2019-04-02T02:17:04.636Z,65.94
2019-04-02T02:20:09.346Z,65.96
2019-04-02T02:23:13.787Z,66.17
2019-04-02T02:26:18.508Z,66.42
2019-04-02T02:29:23.241Z,66.73
2019-04-02T02:32:27.973Z,67.38
2019-04-02T02:35:32.710Z,67.50
2019-04-02T02:38:37.431Z,67.33
2019-04-02T02:42:06.022Z,67.12
2019-04-02T02:45:10.469Z,66.77
2019-04-02T02:48:16.540Z,67.46
2019-04-02T02:51:21.754Z,67.82
2019-04-02T02:54:26.200Z,68.03
2019-04-02T02:57:30.641Z,68.28
2019-04-02T03:00:35.082Z,68.33
2019-04-02T03:03:39.853Z,68.23
2019-04-02T03:06:44.286Z,68.02
2019-04-02T03:09:49.008Z,67.34
2019-04-02T03:12:53.442Z,67.60
2019-04-02T03:15:57.888Z,67.54
2019-04-02T03:19:03.003Z,67.20
2019-04-02T03:22:07.727Z,67.34
2019-04-02T03:25:12.164Z,67.05
2019-04-02T03:28:16.594Z,67.77
2019-04-02T03:31:21.047Z,67.79
2019-04-02T03:34:26.222Z,68.02
2019-04-02T03:37:31.183Z,68.38
2019-04-02T03:40:35.931Z,69.20
2019-04-02T03:43:42.233Z,69.92
2019-04-02T03:46:46.808Z,70.13
2019-04-02T03:49:51.263Z,69.99
2019-04-02T03:52:55.684Z,69.02
2019-04-02T03:56:00.135Z,68.40
2019-04-02T03:59:04.567Z,68.60
2019-04-02T04:02:09.334Z,68.80
2019-04-02T04:05:13.779Z,68.06
2019-04-02T04:08:18.493Z,68.68
2019-04-02T04:11:23.222Z,69.30
2019-04-02T04:14:27.648Z,68.67
2019-04-02T04:17:32.088Z,68.96
2019-04-02T04:20:36.793Z,69.49
2019-04-02T04:23:41.228Z,70.01
2019-04-02T04:26:46.113Z,68.73
2019-04-02T04:29:50.589Z,69.13
2019-04-02T04:32:55.027Z,69.19
2019-04-02T04:35:59.732Z,68.69
2019-04-02T04:39:06.103Z,70.06
2019-04-02T04:42:10.549Z,69.84
2019-04-02T04:45:15.254Z,69.50
2019-04-02T04:48:19.704Z,70.03
2019-04-02T04:51:24.407Z,69.90
2019-04-02T04:54:28.846Z,69.64
2019-04-02T04:57:34.001Z,69.63
2019-04-02T05:00:38.613Z,70.05
2019-04-02T05:04:38.321Z,69.81
2019-04-02T05:07:43.048Z,69.94
2019-04-02T05:13:43.548Z,70.47
2019-04-02T05:16:48.536Z,70.64
2019-04-02T05:19:53.271Z,70.49
2019-04-02T05:22:57.718Z,70.42
2019-04-02T05:26:02.160Z,70.65
2019-04-02T05:29:07.208Z,70.61
2019-04-02T05:32:11.776Z,70.24
2019-04-02T05:35:16.613Z,69.92
2019-04-02T05:38:21.054Z,69.45
2019-04-02T05:41:25.873Z,69.40
2019-04-02T05:44:30.605Z,69.73
2019-04-02T05:47:35.344Z,69.90
2019-04-02T05:50:40.171Z,70.33
2019-04-02T05:53:44.620Z,69.93
2019-04-02T05:56:49.690Z,69.86
2019-04-02T05:59:54.768Z,70.53
2019-04-02T06:02:59.207Z,70.89
2019-04-02T06:06:03.650Z,70.76
2019-04-02T06:09:08.564Z,70.13
2019-04-02T06:12:13.306Z,69.83
2019-04-02T06:15:17.723Z,69.36
2019-04-02T06:18:22.312Z,68.68
2019-04-02T06:21:28.190Z,68.69
2019-04-02T06:24:32.630Z,67.44
2019-04-02T06:27:37.347Z,65.39
2019-04-02T06:30:41.865Z,65.02
2019-04-02T06:33:46.319Z,65.32
2019-04-02T06:36:51.029Z,63.47
2019-04-02T06:39:55.477Z,61.38
2019-04-02T06:42:59.996Z,59.85
2019-04-02T06:46:04.859Z,61.94
2019-04-02T06:49:16.541Z,61.11
2019-04-02T06:52:21.338Z,59.42
2019-04-02T06:55:27.681Z,56.77
2019-04-02T06:58:31.963Z,55.78
2019-04-02T07:01:36.476Z,55.19
2019-04-02T07:04:41.704Z,57.10
2019-04-02T07:07:46.733Z,55.34
2019-04-02T07:10:53.951Z,53.95
2019-04-02T07:13:57.736Z,52.18
2019-04-02T07:17:02.460Z,51.93
2019-04-02T07:20:08.756Z,49.17
2019-04-02T07:23:13.201Z,49.48
2019-04-02T07:26:17.650Z,52.42
2019-04-02T07:29:22.510Z,53.22
2019-04-02T07:32:27.243Z,54.72
2019-04-02T07:35:31.718Z,54.63
2019-04-02T07:38:37.223Z,55.26
2019-04-02T07:41:41.808Z,55.02
2019-04-02T07:44:46.584Z,55.92
2019-04-02T07:47:51.305Z,56.41
2019-04-02T07:50:55.747Z,57.55
2019-04-02T07:54:00.454Z,56.01
2019-04-02T07:57:05.202Z,56.33
2019-04-02T08:00:10.657Z,57.13
2019-04-02T08:03:15.675Z,56.95
2019-04-02T08:06:20.190Z,57.47
2019-04-02T08:09:24.643Z,56.26
2019-04-02T08:12:29.355Z,57.22
2019-04-02T08:15:33.803Z,58.77
2019-04-02T08:18:38.258Z,57.58
2019-04-02T08:21:43.033Z,59.03
2019-04-02T08:24:47.484Z,57.57
2019-04-02T08:27:51.934Z,55.26
2019-04-02T08:30:56.715Z,54.41
2019-04-02T08:34:01.450Z,54.60
2019-04-02T08:37:06.609Z,53.60
2019-04-02T08:40:11.624Z,53.73
2019-04-02T08:43:18.134Z,54.20
2019-04-02T08:46:22.242Z,51.84
2019-04-02T08:49:26.946Z,52.25
2019-04-02T08:52:31.682Z,51.02
2019-04-02T08:55:36.413Z,49.41
2019-04-02T08:58:51.132Z,50.31
2019-04-02T09:01:48.102Z,48.97
2019-04-02T09:04:52.945Z,50.38
2019-04-02T09:07:57.677Z,51.12
2019-04-02T09:11:02.129Z,49.92
2019-04-02T09:14:07.958Z,50.18
2019-04-02T09:17:12.894Z,48.91
2019-04-02T09:20:18.048Z,49.69
2019-04-02T09:23:22.823Z,46.34
2019-04-02T09:26:27.321Z,46.18
2019-04-02T09:29:31.767Z,44.95
2019-04-02T09:32:36.932Z,45.26
2019-04-02T09:35:41.797Z,46.61
2019-04-02T09:38:46.771Z,45.06
2019-04-02T09:41:53.021Z,44.74
2019-04-02T09:44:57.963Z,44.98
2019-04-02T09:48:02.759Z,42.76
2019-04-02T09:51:08.091Z,43.34
2019-04-02T09:54:12.965Z,42.61
2019-04-02T09:57:17.628Z,42.68
2019-04-02T10:00:27.521Z,41.57
2019-04-02T10:03:33.231Z,42.74
2019-04-02T10:06:37.820Z,41.74
2019-04-02T10:09:42.535Z,42.58
2019-04-02T10:12:47.273Z,43.24
2019-04-02T10:15:51.728Z,40.98
2019-04-02T10:18:56.174Z,41.65
2019-04-02T10:22:00.620Z,41.69
2019-04-02T10:25:08.242Z,40.99
2019-04-02T10:28:14.756Z,37.55
2019-04-02T10:31:19.142Z,36.92
2019-04-02T10:34:23.967Z,36.86
2019-04-02T10:37:29.902Z,36.62
2019-04-02T10:40:36.443Z,36.44
2019-04-02T10:43:41.537Z,36.75
2019-04-02T10:46:46.278Z,37.15
2019-04-02T10:49:51.004Z,36.33
2019-04-02T10:52:55.773Z,37.35
2019-04-02T10:56:00.566Z,36.70
2019-04-02T10:59:05.607Z,35.74
2019-04-02T11:02:10.436Z,33.98
2019-04-02T11:05:18.333Z,26.37
2019-04-02T11:08:21.718Z,27.25
2019-04-02T11:11:26.567Z,27.31
2019-04-02T11:14:31.300Z,28.59
2019-04-02T11:17:36.142Z,27.04
2019-04-02T11:20:42.337Z,27.53
2019-04-02T11:23:46.771Z,27.13
2019-04-02T11:26:51.564Z,29.25
2019-04-02T11:29:56.285Z,26.57
2019-04-02T11:33:01.106Z,26.80
2019-04-02T11:36:06.557Z,26.43
2019-04-02T11:39:11.400Z,25.37
2019-04-02T11:42:16.231Z,23.93
2019-04-02T11:45:20.749Z,23.50
2019-04-02T11:48:25.486Z,22.75
2019-04-02T11:51:30.219Z,23.35
2019-04-02T11:54:34.738Z,20.63
2019-04-02T11:57:41.102Z,21.33
2019-04-02T12:00:47.287Z,21.01
2019-04-02T12:03:51.729Z,22.72
2019-04-02T12:06:56.531Z,21.55
2019-04-02T12:10:00.987Z,22.45
2019-04-02T12:13:05.427Z,21.48
2019-04-02T12:16:09.887Z,22.22
2019-04-02T12:19:14.378Z,20.97
2019-04-02T12:22:19.061Z,21.92
2019-04-02T12:25:23.799Z,18.91
2019-04-02T12:28:28.522Z,19.33
2019-04-02T12:31:35.537Z,19.40
2019-04-02T12:34:39.724Z,20.62
2019-04-02T12:37:44.456Z,19.23
2019-04-02T12:40:49.198Z,19.69
2019-04-02T12:43:53.919Z,21.47
2019-04-02T12:46:58.362Z,21.30
2019-04-02T12:50:03.597Z,20.27
2019-04-02T12:53:08.527Z,19.77
2019-04-02T12:56:12.984Z,20.94
2019-04-02T12:59:17.677Z,20.10
2019-04-02T13:02:22.558Z,21.46
2019-04-02T13:05:27.340Z,20.34
2019-04-02T13:08:32.666Z,21.84
2019-04-02T13:11:37.518Z,22.75
2019-04-02T13:14:42.250Z,21.37
2019-04-02T13:17:47.022Z,23.13
2019-04-02T13:20:51.710Z,22.38
2019-04-02T13:23:56.441Z,21.35
2019-04-02T13:27:01.175Z,21.11
2019-04-02T13:30:09.289Z,21.60
2019-04-02T13:33:13.740Z,21.28
2019-04-02T13:36:18.441Z,20.29
2019-04-02T13:39:23.658Z,20.85
2019-04-02T13:42:28.934Z,20.54
2019-04-02T13:45:33.393Z,20.92
2019-04-02T13:48:37.820Z,20.38
2019-04-02T13:51:42.263Z,23.31
2019-04-02T13:54:46.725Z,20.90
2019-04-02T13:57:51.160Z,20.98
2019-04-02T14:01:11.846Z,19.96
2019-04-02T14:04:16.288Z,18.59
2019-04-02T14:07:20.744Z,18.97
2019-04-02T14:10:25.182Z,19.27
2019-04-02T14:13:29.630Z,21.01
2019-04-02T14:16:34.158Z,19.28
2019-04-02T14:19:38.903Z,19.43
2019-04-02T14:22:43.361Z,18.49
2019-04-02T14:25:49.575Z,19.06
2019-04-02T14:28:54.321Z,19.28
2019-04-02T14:31:59.696Z,19.50
2019-04-02T14:35:06.500Z,20.34
2019-04-02T14:38:12.366Z,21.03
2019-04-02T14:41:17.651Z,19.97
2019-04-02T14:44:22.091Z,21.20
2019-04-02T14:47:26.801Z,21.37
2019-04-02T14:50:31.537Z,21.35
2019-04-02T14:53:36.761Z,22.07
2019-04-02T14:56:41.586Z,22.02
2019-04-02T14:59:46.543Z,21.99
2019-04-02T15:02:51.998Z,21.67
2019-04-02T15:05:56.584Z,23.92
2019-04-02T15:09:01.352Z,23.09
2019-04-02T15:12:06.084Z,23.16
2019-04-02T15:15:10.597Z,22.69
2019-04-02T15:18:15.033Z,22.72
2019-04-02T15:21:19.775Z,22.43
2019-04-02T15:24:30.150Z,22.98
2019-04-02T15:27:50.181Z,23.05
2019-04-02T15:30:55.524Z,22.21
2019-04-02T15:34:02.242Z,20.66
2019-04-02T15:37:06.969Z,20.21
2019-04-02T15:40:11.908Z,20.14
2019-04-02T15:43:16.357Z,21.79
2019-04-02T15:46:20.792Z,23.54
2019-04-02T15:49:25.483Z,24.19
2019-04-02T15:52:30.215Z,24.53
2019-04-02T15:55:34.946Z,25.01
2019-04-02T15:58:39.687Z,24.61
2019-04-02T16:01:44.131Z,25.23
2019-04-02T16:04:51.171Z,24.64
2019-04-02T16:07:55.004Z,25.10
2019-04-02T16:10:59.440Z,25.78
2019-04-02T16:14:04.147Z,26.97
2019-04-02T16:17:10.126Z,27.63
2019-04-02T16:20:16.044Z,28.34
2019-04-02T16:23:20.488Z,28.55
2019-04-02T16:26:27.748Z,29.25
2019-04-02T16:29:31.694Z,29.56
2019-04-02T16:32:36.428Z,30.99
2019-04-02T16:35:41.149Z,28.82
2019-04-02T16:38:45.610Z,27.60
2019-04-02T16:41:50.438Z,27.43
2019-04-02T16:44:57.597Z,26.87
2019-04-02T16:48:02.327Z,26.19
2019-04-02T16:51:07.059Z,24.74
2019-04-02T16:54:11.798Z,23.22
2019-04-02T16:57:16.518Z,23.19
2019-04-02T17:00:20.971Z,23.55
2019-04-02T17:03:26.919Z,23.71
2019-04-02T17:06:31.842Z,24.56
2019-04-02T17:09:36.301Z,24.15
2019-04-02T17:12:41.102Z,24.35
2019-04-02T17:15:45.555Z,24.11
2019-04-02T17:18:50.004Z,26.51
2019-04-02T17:21:54.449Z,23.15
2019-04-02T17:24:58.890Z,23.98
2019-04-02T17:28:03.331Z,24.34
2019-04-02T17:31:08.048Z,24.73
2019-04-02T17:34:12.502Z,24.86
2019-04-02T17:37:17.208Z,24.71
2019-04-02T17:40:21.932Z,24.60
2019-04-02T17:43:26.669Z,24.91
2019-04-02T17:46:31.393Z,23.12
2019-04-02T17:49:38.743Z,22.80
2019-04-02T17:52:42.301Z,22.98
2019-04-02T17:55:46.752Z,23.51
2019-04-02T17:58:51.275Z,24.65
2019-04-02T18:01:55.720Z,25.62
2019-04-02T18:05:00.179Z,26.02
2019-04-02T18:08:04.873Z,26.64
2019-04-02T18:11:09.319Z,26.73
2019-04-02T18:14:14.009Z,26.83
2019-04-02T18:17:18.614Z,27.08
2019-04-02T18:20:23.064Z,29.92
2019-04-02T18:23:27.510Z,32.26
2019-04-02T18:26:32.283Z,32.62
2019-04-02T18:29:36.728Z,31.29
2019-04-02T18:32:41.166Z,33.11
2019-04-02T18:35:45.615Z,34.18
2019-04-02T18:38:50.052Z,36.79
2019-04-02T18:41:54.803Z,37.13
2019-04-02T18:44:59.556Z,37.00
2019-04-02T18:48:04.272Z,45.18
2019-04-02T18:51:08.725Z,43.73
2019-04-02T18:54:13.433Z,38.59
2019-04-02T18:57:17.877Z,41.56
2019-04-02T19:00:22.747Z,43.35
2019-04-02T19:03:29.791Z,44.40
2019-04-02T19:06:36.236Z,39.57
2019-04-02T19:09:39.864Z,34.58
2019-04-02T19:12:44.381Z,38.48
2019-04-02T19:15:49.096Z,40.26
2019-04-02T19:18:53.956Z,38.46
2019-04-02T19:21:58.466Z,36.99
2019-04-02T19:25:04.038Z,40.33
2019-04-02T19:28:10.219Z,40.79
2019-04-02T19:31:15.028Z,41.58
2019-04-02T19:34:19.736Z,38.94
2019-04-02T19:37:24.178Z,40.12
2019-04-02T19:40:28.891Z,39.89
2019-04-02T19:43:33.327Z,39.64
2019-04-02T19:46:37.768Z,36.53
2019-04-02T19:49:42.465Z,37.75
2019-04-02T19:52:46.910Z,40.00
2019-04-02T19:55:51.361Z,38.09
2019-04-02T19:58:56.044Z,38.09
2019-04-02T20:02:00.829Z,38.02
2019-04-02T20:05:07.252Z,38.24
2019-04-02T20:08:11.978Z,38.15
2019-04-02T20:11:16.432Z,38.44
2019-04-02T20:14:22.450Z,39.02
2019-04-02T20:17:27.102Z,39.39
2019-04-02T20:20:31.819Z,39.58
2019-04-02T20:23:36.265Z,40.02
2019-04-02T20:26:40.976Z,39.93
2019-04-02T20:29:49.067Z,39.58
2019-04-02T20:32:51.591Z,39.78
2019-04-02T20:35:56.301Z,40.07
2019-04-02T20:39:01.027Z,40.58
2019-04-02T20:42:05.546Z,41.52
2019-04-02T20:45:10.492Z,41.19
2019-04-02T20:48:15.223Z,41.74
2019-04-02T20:51:19.704Z,41.18
2019-04-02T20:54:24.136Z,42.60
2019-04-02T20:57:28.895Z,42.17
2019-04-02T21:00:33.627Z,42.52
2019-04-02T21:03:48.787Z,41.74
2019-04-02T21:06:45.465Z,40.87
2019-04-02T21:09:49.952Z,40.40
2019-04-02T21:12:54.708Z,38.53
2019-04-02T21:15:59.434Z,38.42
2019-04-02T21:19:04.168Z,38.56
2019-04-02T21:22:08.643Z,37.64
2019-04-02T21:25:13.415Z,37.53
2019-04-02T21:28:18.154Z,37.13
2019-04-02T21:31:22.884Z,37.41
2019-04-02T21:34:37.783Z,36.75
2019-04-02T21:37:33.838Z,40.10
2019-04-02T21:40:38.224Z,40.54
2019-04-02T21:43:43.748Z,39.50
2019-04-02T21:46:48.486Z,37.58
2019-04-02T21:49:52.915Z,37.80
2019-04-02T21:52:57.444Z,38.74
2019-04-02T21:56:02.160Z,39.66
2019-04-02T21:59:07.097Z,40.14
2019-04-02T22:02:12.132Z,40.88
2019-04-02T22:05:16.970Z,41.43
2019-04-02T22:08:21.699Z,41.65
2019-04-02T22:11:26.427Z,42.37
2019-04-02T22:14:30.873Z,42.76
2019-04-02T22:17:35.311Z,43.45
2019-04-02T22:20:40.010Z,46.12
2019-04-02T22:23:44.465Z,46.63
2019-04-02T22:26:49.163Z,48.41
2019-04-02T22:29:53.602Z,50.22
2019-04-02T22:32:58.314Z,50.84
2019-04-02T22:36:02.747Z,50.61
2019-04-02T22:39:08.269Z,51.42
2019-04-02T22:42:12.716Z,52.09
2019-04-02T22:45:17.152Z,51.28
2019-04-02T22:48:21.871Z,51.73
2019-04-02T22:51:26.308Z,53.09
2019-04-02T22:54:31.892Z,52.83
2019-04-02T22:57:36.918Z,49.59
2019-04-02T23:00:41.607Z,52.23
2019-04-02T23:03:46.345Z,51.71
2019-04-02T23:06:50.781Z,53.37
2019-04-02T23:09:55.495Z,53.44
2019-04-02T23:12:59.937Z,53.47
2019-04-02T23:16:23.882Z,53.55
2019-04-02T23:19:12.749Z,53.32
2019-04-02T23:22:17.290Z,53.11
2019-04-02T23:25:21.734Z,51.59
2019-04-02T23:28:26.187Z,54.09
2019-04-02T23:31:30.620Z,54.44
2019-04-02T23:34:35.065Z,52.21
2019-04-02T23:37:39.936Z,54.82
2019-04-02T23:40:44.534Z,54.26
2019-04-02T23:43:48.978Z,54.93
2019-04-02T23:46:53.513Z,55.60
2019-04-02T23:49:57.940Z,54.25
2019-04-02T23:53:03.650Z,53.46
2019-04-02T23:56:08.269Z,55.72
2019-04-02T23:59:12.766Z,55.78
